sensor_id;sensor_type;location;lat;lon;timestamp;temperature;humidity
2409;DHT22;8463;48.094;7.970;2024-03-02T00:00:08;3.90;1.00
2409;DHT22;8463;48.094;7.970;2024-03-02T00:02:44;3.90;1.00
2409;DHT22;8463;48.094;7.970;2024-03-02T00:05:23;3.90;1.00
2409;DHT22;8463;48.094;7.970;2024-03-02T00:07:56;3.90;1.00
2409;DHT22;8463;48.094;7.970;2024-03-02T00:10:27;3.90;1.00
2409;DHT22;8463;48.094;7.970;2024-03-02T00:12:57;3.90;1.00
2409;DHT22;8463;48.094;7.970;2024-03-02T00:18:32;3.80;1.00
2409;DHT22;8463;48.094;7.970;2024-03-02T00:20:58;3.80;1.00
2409;DHT22;8463;48.094;7.970;2024-03-02T00:23:27;3.80;1.00
2409;DHT22;8463;48.094;7.970;2024-03-02T00:25:56;3.80;1.00
2409;DHT22;8463;48.094;7.970;2024-03-02T00:28:23;3.80;1.00
2409;DHT22;8463;48.094;7.970;2024-03-02T00:30:58;3.70;1.00
2409;DHT22;8463;48.094;7.970;2024-03-02T00:35:59;3.60;1.00
2409;DHT22;8463;48.094;7.970;2024-03-02T00:38:29;3.70;1.00
2409;DHT22;8463;48.094;7.970;2024-03-02T00:40:56;3.60;1.00
2409;DHT22;8463;48.094;7.970;2024-03-02T00:45:53;3.60;1.00
2409;DHT22;8463;48.094;7.970;2024-03-02T00:48:19;3.60;1.00
2409;DHT22;8463;48.094;7.970;2024-03-02T00:50:45;3.60;1.00
2409;DHT22;8463;48.094;7.970;2024-03-02T00:53:12;3.60;1.00
2409;DHT22;8463;48.094;7.970;2024-03-02T00:55:38;3.50;1.00
2409;DHT22;8463;48.094;7.970;2024-03-02T00:58:05;3.50;1.00
2409;DHT22;8463;48.094;7.970;2024-03-02T01:00:30;3.50;1.00
2409;DHT22;8463;48.094;7.970;2024-03-02T01:02:56;3.50;1.00
2409;DHT22;8463;48.094;7.970;2024-03-02T01:05:21;3.40;1.00
2409;DHT22;8463;48.094;7.970;2024-03-02T01:07:47;3.40;1.00
2409;DHT22;8463;48.094;7.970;2024-03-02T01:10:13;3.40;1.00
2409;DHT22;8463;48.094;7.970;2024-03-02T01:12:38;3.40;1.00
2409;DHT22;8463;48.094;7.970;2024-03-02T01:15:05;3.40;1.00
2409;DHT22;8463;48.094;7.970;2024-03-02T01:17:33;3.40;1.00
2409;DHT22;8463;48.094;7.970;2024-03-02T01:20:01;3.40;1.00
2409;DHT22;8463;48.094;7.970;2024-03-02T01:22:27;3.40;1.00
2409;DHT22;8463;48.094;7.970;2024-03-02T01:24:52;3.40;1.00
2409;DHT22;8463;48.094;7.970;2024-03-02T01:27:18;3.40;1.00
2409;DHT22;8463;48.094;7.970;2024-03-02T01:29:44;3.40;1.00
2409;DHT22;8463;48.094;7.970;2024-03-02T01:32:09;3.40;1.00
2409;DHT22;8463;48.094;7.970;2024-03-02T01:34:35;3.40;1.00
2409;DHT22;8463;48.094;7.970;2024-03-02T01:37:01;3.40;1.00
2409;DHT22;8463;48.094;7.970;2024-03-02T01:39:26;3.50;1.00
2409;DHT22;8463;48.094;7.970;2024-03-02T01:41:52;3.40;1.00
2409;DHT22;8463;48.094;7.970;2024-03-02T01:44:17;3.40;1.00
2409;DHT22;8463;48.094;7.970;2024-03-02T01:46:43;3.40;1.00
2409;DHT22;8463;48.094;7.970;2024-03-02T01:49:08;3.30;1.00
2409;DHT22;8463;48.094;7.970;2024-03-02T01:51:34;3.30;1.00
2409;DHT22;8463;48.094;7.970;2024-03-02T01:54:00;3.30;1.00
2409;DHT22;8463;48.094;7.970;2024-03-02T01:56:25;3.40;1.00
2409;DHT22;8463;48.094;7.970;2024-03-02T01:58:53;3.40;1.00
2409;DHT22;8463;48.094;7.970;2024-03-02T02:01:19;3.40;1.00
2409;DHT22;8463;48.094;7.970;2024-03-02T02:03:45;3.30;1.00
2409;DHT22;8463;48.094;7.970;2024-03-02T02:06:10;3.30;1.00
2409;DHT22;8463;48.094;7.970;2024-03-02T02:08:39;3.30;1.00
2409;DHT22;8463;48.094;7.970;2024-03-02T02:11:05;3.30;1.00
2409;DHT22;8463;48.094;7.970;2024-03-02T02:13:30;3.30;1.00
2409;DHT22;8463;48.094;7.970;2024-03-02T02:16:05;3.20;1.00
2409;DHT22;8463;48.094;7.970;2024-03-02T02:18:31;3.20;1.00
2409;DHT22;8463;48.094;7.970;2024-03-02T02:20:56;3.20;1.00
2409;DHT22;8463;48.094;7.970;2024-03-02T02:23:24;3.20;1.00
2409;DHT22;8463;48.094;7.970;2024-03-02T02:25:49;3.20;1.00
2409;DHT22;8463;48.094;7.970;2024-03-02T02:28:15;3.20;1.00
2409;DHT22;8463;48.094;7.970;2024-03-02T02:30:41;3.10;1.00
2409;DHT22;8463;48.094;7.970;2024-03-02T02:33:06;3.10;1.00
2409;DHT22;8463;48.094;7.970;2024-03-02T02:35:32;3.10;1.00
2409;DHT22;8463;48.094;7.970;2024-03-02T02:37:58;3.10;1.00
2409;DHT22;8463;48.094;7.970;2024-03-02T02:40:24;3.10;1.00
2409;DHT22;8463;48.094;7.970;2024-03-02T02:42:50;3.10;1.00
2409;DHT22;8463;48.094;7.970;2024-03-02T02:45:17;3.10;1.00
2409;DHT22;8463;48.094;7.970;2024-03-02T02:47:44;3.20;1.00
2409;DHT22;8463;48.094;7.970;2024-03-02T02:50:11;3.20;1.00
2409;DHT22;8463;48.094;7.970;2024-03-02T02:52:38;3.10;1.00
2409;DHT22;8463;48.094;7.970;2024-03-02T02:55:06;3.10;1.00
2409;DHT22;8463;48.094;7.970;2024-03-02T02:57:33;3.10;1.00
2409;DHT22;8463;48.094;7.970;2024-03-02T03:02:37;3.00;1.00
2409;DHT22;8463;48.094;7.970;2024-03-02T03:05:04;3.00;1.00
2409;DHT22;8463;48.094;7.970;2024-03-02T03:07:31;2.90;1.00
2409;DHT22;8463;48.094;7.970;2024-03-02T03:09:56;2.90;1.00
2409;DHT22;8463;48.094;7.970;2024-03-02T03:12:22;2.90;1.00
2409;DHT22;8463;48.094;7.970;2024-03-02T03:14:48;2.90;1.00
2409;DHT22;8463;48.094;7.970;2024-03-02T03:17:13;2.90;1.00
2409;DHT22;8463;48.094;7.970;2024-03-02T03:19:42;2.80;1.00
2409;DHT22;8463;48.094;7.970;2024-03-02T03:22:08;2.80;1.00
2409;DHT22;8463;48.094;7.970;2024-03-02T03:24:34;2.80;1.00
2409;DHT22;8463;48.094;7.970;2024-03-02T03:26:59;2.70;1.00
2409;DHT22;8463;48.094;7.970;2024-03-02T03:29:25;2.70;1.00
2409;DHT22;8463;48.094;7.970;2024-03-02T03:31:51;2.70;1.00
2409;DHT22;8463;48.094;7.970;2024-03-02T03:34:19;2.70;1.00
2409;DHT22;8463;48.094;7.970;2024-03-02T03:36:44;2.70;1.00
2409;DHT22;8463;48.094;7.970;2024-03-02T03:39:10;2.70;1.00
2409;DHT22;8463;48.094;7.970;2024-03-02T03:41:35;2.70;1.00
2409;DHT22;8463;48.094;7.970;2024-03-02T03:44:01;2.70;1.00
2409;DHT22;8463;48.094;7.970;2024-03-02T03:46:27;2.70;1.00
2409;DHT22;8463;48.094;7.970;2024-03-02T03:48:55;2.70;1.00
2409;DHT22;8463;48.094;7.970;2024-03-02T03:51:21;2.70;1.00
2409;DHT22;8463;48.094;7.970;2024-03-02T03:53:48;2.70;1.00
2409;DHT22;8463;48.094;7.970;2024-03-02T03:56:14;2.70;1.00
2409;DHT22;8463;48.094;7.970;2024-03-02T03:58:39;2.60;1.00
2409;DHT22;8463;48.094;7.970;2024-03-02T04:01:05;2.60;1.00
2409;DHT22;8463;48.094;7.970;2024-03-02T04:03:33;2.70;1.00
2409;DHT22;8463;48.094;7.970;2024-03-02T04:05:59;2.70;1.00
2409;DHT22;8463;48.094;7.970;2024-03-02T04:08:24;2.70;1.00
2409;DHT22;8463;48.094;7.970;2024-03-02T04:10:52;2.70;1.00
2409;DHT22;8463;48.094;7.970;2024-03-02T04:13:17;2.70;1.00
2409;DHT22;8463;48.094;7.970;2024-03-02T04:15:43;2.70;1.00
2409;DHT22;8463;48.094;7.970;2024-03-02T04:18:09;2.80;1.00
2409;DHT22;8463;48.094;7.970;2024-03-02T04:20:34;2.80;1.00
2409;DHT22;8463;48.094;7.970;2024-03-02T04:23:00;2.80;1.00
2409;DHT22;8463;48.094;7.970;2024-03-02T04:25:26;2.80;1.00
2409;DHT22;8463;48.094;7.970;2024-03-02T04:27:51;2.80;1.00
2409;DHT22;8463;48.094;7.970;2024-03-02T04:30:17;2.90;1.00
2409;DHT22;8463;48.094;7.970;2024-03-02T04:32:43;2.80;1.00
2409;DHT22;8463;48.094;7.970;2024-03-02T04:35:12;2.80;1.00
2409;DHT22;8463;48.094;7.970;2024-03-02T04:37:38;2.80;1.00
2409;DHT22;8463;48.094;7.970;2024-03-02T04:40:04;2.80;1.00
2409;DHT22;8463;48.094;7.970;2024-03-02T04:42:33;2.70;1.00
2409;DHT22;8463;48.094;7.970;2024-03-02T04:44:59;2.70;1.00
2409;DHT22;8463;48.094;7.970;2024-03-02T04:47:25;2.70;1.00
2409;DHT22;8463;48.094;7.970;2024-03-02T04:49:50;2.80;1.00
2409;DHT22;8463;48.094;7.970;2024-03-02T04:52:16;2.80;1.00
2409;DHT22;8463;48.094;7.970;2024-03-02T04:54:42;2.80;1.00
2409;DHT22;8463;48.094;7.970;2024-03-02T04:57:26;2.80;1.00
2409;DHT22;8463;48.094;7.970;2024-03-02T04:59:52;2.90;1.00
2409;DHT22;8463;48.094;7.970;2024-03-02T05:04:44;3.10;1.00
2409;DHT22;8463;48.094;7.970;2024-03-02T05:07:09;3.10;1.00
2409;DHT22;8463;48.094;7.970;2024-03-02T05:09:35;3.10;1.00
2409;DHT22;8463;48.094;7.970;2024-03-02T05:12:01;3.10;1.00
2409;DHT22;8463;48.094;7.970;2024-03-02T05:14:46;3.10;1.00
2409;DHT22;8463;48.094;7.970;2024-03-02T05:17:14;3.20;1.00
2409;DHT22;8463;48.094;7.970;2024-03-02T05:19:39;3.20;1.00
2409;DHT22;8463;48.094;7.970;2024-03-02T05:22:05;3.20;1.00
2409;DHT22;8463;48.094;7.970;2024-03-02T05:24:31;3.20;1.00
2409;DHT22;8463;48.094;7.970;2024-03-02T05:26:56;3.20;1.00
2409;DHT22;8463;48.094;7.970;2024-03-02T05:29:22;3.20;1.00
2409;DHT22;8463;48.094;7.970;2024-03-02T05:31:48;3.30;1.00
2409;DHT22;8463;48.094;7.970;2024-03-02T05:34:14;3.30;1.00
2409;DHT22;8463;48.094;7.970;2024-03-02T05:36:39;3.30;1.00
2409;DHT22;8463;48.094;7.970;2024-03-02T05:39:07;3.30;1.00
2409;DHT22;8463;48.094;7.970;2024-03-02T05:41:35;3.30;1.00
2409;DHT22;8463;48.094;7.970;2024-03-02T05:44:01;3.20;1.00
2409;DHT22;8463;48.094;7.970;2024-03-02T05:46:27;3.10;1.00
2409;DHT22;8463;48.094;7.970;2024-03-02T05:48:53;3.10;1.00
2409;DHT22;8463;48.094;7.970;2024-03-02T05:51:18;3.20;1.00
2409;DHT22;8463;48.094;7.970;2024-03-02T05:53:44;3.10;1.00
2409;DHT22;8463;48.094;7.970;2024-03-02T05:56:10;3.20;1.00
2409;DHT22;8463;48.094;7.970;2024-03-02T05:58:37;3.30;1.00
2409;DHT22;8463;48.094;7.970;2024-03-02T06:01:23;3.40;1.00
2409;DHT22;8463;48.094;7.970;2024-03-02T06:03:55;3.40;1.00
2409;DHT22;8463;48.094;7.970;2024-03-02T06:06:21;3.40;1.00
2409;DHT22;8463;48.094;7.970;2024-03-02T06:08:46;3.50;1.00
2409;DHT22;8463;48.094;7.970;2024-03-02T06:11:12;3.60;1.00
2409;DHT22;8463;48.094;7.970;2024-03-02T06:13:38;3.60;1.00
2409;DHT22;8463;48.094;7.970;2024-03-02T06:16:03;3.60;1.00
2409;DHT22;8463;48.094;7.970;2024-03-02T06:18:31;3.70;1.00
2409;DHT22;8463;48.094;7.970;2024-03-02T06:20:57;3.80;1.00
2409;DHT22;8463;48.094;7.970;2024-03-02T06:23:23;3.80;1.00
2409;DHT22;8463;48.094;7.970;2024-03-02T06:25:48;3.80;1.00
2409;DHT22;8463;48.094;7.970;2024-03-02T06:28:14;3.90;1.00
2409;DHT22;8463;48.094;7.970;2024-03-02T06:30:42;3.90;1.00
2409;DHT22;8463;48.094;7.970;2024-03-02T06:33:09;3.90;1.00
2409;DHT22;8463;48.094;7.970;2024-03-02T06:35:35;3.90;1.00
2409;DHT22;8463;48.094;7.970;2024-03-02T06:38:01;3.90;1.00
2409;DHT22;8463;48.094;7.970;2024-03-02T06:40:27;3.90;1.00
2409;DHT22;8463;48.094;7.970;2024-03-02T06:42:52;3.80;1.00
2409;DHT22;8463;48.094;7.970;2024-03-02T06:45:18;3.80;1.00
2409;DHT22;8463;48.094;7.970;2024-03-02T06:47:46;3.80;1.00
2409;DHT22;8463;48.094;7.970;2024-03-02T06:50:11;3.80;1.00
2409;DHT22;8463;48.094;7.970;2024-03-02T06:52:37;3.80;1.00
2409;DHT22;8463;48.094;7.970;2024-03-02T06:55:04;3.80;1.00
2409;DHT22;8463;48.094;7.970;2024-03-02T06:57:32;3.90;1.00
2409;DHT22;8463;48.094;7.970;2024-03-02T06:59:57;3.90;1.00
2409;DHT22;8463;48.094;7.970;2024-03-02T07:02:25;3.90;1.00
2409;DHT22;8463;48.094;7.970;2024-03-02T07:04:54;4.00;1.00
2409;DHT22;8463;48.094;7.970;2024-03-02T07:07:20;4.10;1.00
2409;DHT22;8463;48.094;7.970;2024-03-02T07:09:46;4.10;1.00
2409;DHT22;8463;48.094;7.970;2024-03-02T07:12:12;4.10;1.00
2409;DHT22;8463;48.094;7.970;2024-03-02T07:14:38;4.10;1.00
2409;DHT22;8463;48.094;7.970;2024-03-02T07:17:22;4.00;1.00
2409;DHT22;8463;48.094;7.970;2024-03-02T07:19:47;4.00;1.00
2409;DHT22;8463;48.094;7.970;2024-03-02T07:22:13;4.10;1.00
2409;DHT22;8463;48.094;7.970;2024-03-02T07:24:40;4.20;1.00
2409;DHT22;8463;48.094;7.970;2024-03-02T07:27:06;4.20;1.00
2409;DHT22;8463;48.094;7.970;2024-03-02T07:29:32;4.30;1.00
2409;DHT22;8463;48.094;7.970;2024-03-02T07:32:00;4.50;1.00
2409;DHT22;8463;48.094;7.970;2024-03-02T07:34:25;4.50;1.00
2409;DHT22;8463;48.094;7.970;2024-03-02T07:36:51;4.60;1.00
2409;DHT22;8463;48.094;7.970;2024-03-02T07:39:17;4.70;1.00
2409;DHT22;8463;48.094;7.970;2024-03-02T07:41:42;4.80;1.00
2409;DHT22;8463;48.094;7.970;2024-03-02T07:44:09;4.90;1.00
2409;DHT22;8463;48.094;7.970;2024-03-02T07:46:35;5.00;1.00
2409;DHT22;8463;48.094;7.970;2024-03-02T07:49:00;5.10;1.00
2409;DHT22;8463;48.094;7.970;2024-03-02T07:51:26;5.20;1.00
2409;DHT22;8463;48.094;7.970;2024-03-02T07:53:51;5.50;1.00
2409;DHT22;8463;48.094;7.970;2024-03-02T07:56:17;5.50;1.00
2409;DHT22;8463;48.094;7.970;2024-03-02T07:58:48;5.60;1.00
2409;DHT22;8463;48.094;7.970;2024-03-02T08:01:14;5.70;1.00
2409;DHT22;8463;48.094;7.970;2024-03-02T08:03:40;5.90;1.00
2409;DHT22;8463;48.094;7.970;2024-03-02T08:06:08;6.00;1.00
2409;DHT22;8463;48.094;7.970;2024-03-02T08:08:34;6.20;1.00
2409;DHT22;8463;48.094;7.970;2024-03-02T08:10:59;6.10;1.00
2409;DHT22;8463;48.094;7.970;2024-03-02T08:13:25;6.20;1.00
2409;DHT22;8463;48.094;7.970;2024-03-02T08:15:51;6.40;1.00
2409;DHT22;8463;48.094;7.970;2024-03-02T08:18:17;6.50;1.00
2409;DHT22;8463;48.094;7.970;2024-03-02T08:20:42;6.60;1.00
2409;DHT22;8463;48.094;7.970;2024-03-02T08:23:08;6.80;1.00
2409;DHT22;8463;48.094;7.970;2024-03-02T08:25:33;6.90;1.00
2409;DHT22;8463;48.094;7.970;2024-03-02T08:27:59;7.00;1.00
2409;DHT22;8463;48.094;7.970;2024-03-02T08:30:25;7.20;1.00
2409;DHT22;8463;48.094;7.970;2024-03-02T08:32:52;7.40;1.00
2409;DHT22;8463;48.094;7.970;2024-03-02T08:35:20;7.60;1.00
2409;DHT22;8463;48.094;7.970;2024-03-02T08:37:47;7.70;1.00
2409;DHT22;8463;48.094;7.970;2024-03-02T08:40:14;7.80;1.00
2409;DHT22;8463;48.094;7.970;2024-03-02T08:42:39;7.90;1.00
2409;DHT22;8463;48.094;7.970;2024-03-02T08:45:06;8.10;1.00
2409;DHT22;8463;48.094;7.970;2024-03-02T08:47:33;8.30;1.00
2409;DHT22;8463;48.094;7.970;2024-03-02T08:49:59;8.30;1.00
2409;DHT22;8463;48.094;7.970;2024-03-02T08:52:26;8.50;1.00
2409;DHT22;8463;48.094;7.970;2024-03-02T08:54:52;8.60;1.00
2409;DHT22;8463;48.094;7.970;2024-03-02T08:57:17;8.80;1.00
2409;DHT22;8463;48.094;7.970;2024-03-02T08:59:43;9.20;1.00
2409;DHT22;8463;48.094;7.970;2024-03-02T09:02:10;9.40;1.00
2409;DHT22;8463;48.094;7.970;2024-03-02T09:04:36;9.60;1.00
2409;DHT22;8463;48.094;7.970;2024-03-02T09:07:02;9.70;1.00
2409;DHT22;8463;48.094;7.970;2024-03-02T09:09:27;9.90;1.00
2409;DHT22;8463;48.094;7.970;2024-03-02T09:11:57;10.30;1.00
2409;DHT22;8463;48.094;7.970;2024-03-02T09:14:23;10.60;1.00
2409;DHT22;8463;48.094;7.970;2024-03-02T09:16:49;10.60;1.00
2409;DHT22;8463;48.094;7.970;2024-03-02T09:19:14;10.80;1.00
2409;DHT22;8463;48.094;7.970;2024-03-02T09:21:42;11.00;1.00
2409;DHT22;8463;48.094;7.970;2024-03-02T09:24:09;11.30;1.00
2409;DHT22;8463;48.094;7.970;2024-03-02T09:26:38;11.80;1.00
2409;DHT22;8463;48.094;7.970;2024-03-02T09:29:03;11.90;1.00
2409;DHT22;8463;48.094;7.970;2024-03-02T09:31:29;12.10;1.00
2409;DHT22;8463;48.094;7.970;2024-03-02T09:33:55;12.10;1.00
2409;DHT22;8463;48.094;7.970;2024-03-02T09:36:22;12.30;1.00
2409;DHT22;8463;48.094;7.970;2024-03-02T09:38:48;12.50;1.00
2409;DHT22;8463;48.094;7.970;2024-03-02T09:41:15;12.70;1.00
2409;DHT22;8463;48.094;7.970;2024-03-02T09:43:41;12.80;1.00
2409;DHT22;8463;48.094;7.970;2024-03-02T09:46:10;12.90;1.00
2409;DHT22;8463;48.094;7.970;2024-03-02T09:48:36;13.00;1.00
2409;DHT22;8463;48.094;7.970;2024-03-02T09:51:02;13.20;1.00
2409;DHT22;8463;48.094;7.970;2024-03-02T09:53:31;13.20;1.00
2409;DHT22;8463;48.094;7.970;2024-03-02T09:55:58;13.60;1.00
2409;DHT22;8463;48.094;7.970;2024-03-02T09:58:24;13.60;1.00
2409;DHT22;8463;48.094;7.970;2024-03-02T10:00:49;13.70;1.00
2409;DHT22;8463;48.094;7.970;2024-03-02T10:03:15;13.90;1.00
2409;DHT22;8463;48.094;7.970;2024-03-02T10:05:43;14.10;1.00
2409;DHT22;8463;48.094;7.970;2024-03-02T10:08:09;14.40;1.00
2409;DHT22;8463;48.094;7.970;2024-03-02T10:10:39;14.80;1.00
2409;DHT22;8463;48.094;7.970;2024-03-02T10:13:12;14.80;1.00
2409;DHT22;8463;48.094;7.970;2024-03-02T10:15:39;15.50;1.00
2409;DHT22;8463;48.094;7.970;2024-03-02T10:18:12;15.50;1.00
2409;DHT22;8463;48.094;7.970;2024-03-02T10:20:38;16.00;1.00
2409;DHT22;8463;48.094;7.970;2024-03-02T10:25:36;18.10;1.00
2409;DHT22;8463;48.094;7.970;2024-03-02T10:28:01;19.40;1.00
2409;DHT22;8463;48.094;7.970;2024-03-02T10:30:31;20.50;1.00
2409;DHT22;8463;48.094;7.970;2024-03-02T10:32:57;22.60;1.00
2409;DHT22;8463;48.094;7.970;2024-03-02T10:35:23;22.70;1.00
2409;DHT22;8463;48.094;7.970;2024-03-02T10:37:49;23.20;1.00
2409;DHT22;8463;48.094;7.970;2024-03-02T10:40:16;23.20;1.00
2409;DHT22;8463;48.094;7.970;2024-03-02T10:42:42;22.80;1.00
2409;DHT22;8463;48.094;7.970;2024-03-02T10:45:10;22.50;1.00
2409;DHT22;8463;48.094;7.970;2024-03-02T10:47:38;22.30;1.00
2409;DHT22;8463;48.094;7.970;2024-03-02T10:50:07;22.60;1.00
2409;DHT22;8463;48.094;7.970;2024-03-02T10:52:37;23.30;1.00
2409;DHT22;8463;48.094;7.970;2024-03-02T10:55:06;24.20;1.00
2409;DHT22;8463;48.094;7.970;2024-03-02T10:57:53;25.10;1.00
2409;DHT22;8463;48.094;7.970;2024-03-02T11:00:20;26.20;1.00
2409;DHT22;8463;48.094;7.970;2024-03-02T11:02:52;26.80;1.00
2409;DHT22;8463;48.094;7.970;2024-03-02T11:05:29;27.20;1.00
2409;DHT22;8463;48.094;7.970;2024-03-02T11:08:04;27.70;1.00
2409;DHT22;8463;48.094;7.970;2024-03-02T11:10:41;28.20;1.00
2409;DHT22;8463;48.094;7.970;2024-03-02T11:13:12;27.50;1.00
2409;DHT22;8463;48.094;7.970;2024-03-02T11:15:40;27.50;1.00
2409;DHT22;8463;48.094;7.970;2024-03-02T11:18:07;28.10;1.00
2409;DHT22;8463;48.094;7.970;2024-03-02T11:20:36;28.70;1.00
2409;DHT22;8463;48.094;7.970;2024-03-02T11:23:09;28.70;1.00
2409;DHT22;8463;48.094;7.970;2024-03-02T11:25:35;28.80;1.00
2409;DHT22;8463;48.094;7.970;2024-03-02T11:28:03;29.40;1.00
2409;DHT22;8463;48.094;7.970;2024-03-02T11:33:07;29.90;1.00
2409;DHT22;8463;48.094;7.970;2024-03-02T11:35:43;30.70;1.00
2409;DHT22;8463;48.094;7.970;2024-03-02T11:38:11;31.90;1.00
2409;DHT22;8463;48.094;7.970;2024-03-02T11:40:39;33.00;1.00
2409;DHT22;8463;48.094;7.970;2024-03-02T11:43:05;33.60;1.00
2409;DHT22;8463;48.094;7.970;2024-03-02T11:45:31;33.20;1.00
2409;DHT22;8463;48.094;7.970;2024-03-02T11:47:59;31.50;1.00
2409;DHT22;8463;48.094;7.970;2024-03-02T11:50:35;30.70;1.00
2409;DHT22;8463;48.094;7.970;2024-03-02T11:53:05;31.40;1.00
2409;DHT22;8463;48.094;7.970;2024-03-02T11:55:35;30.70;1.00
2409;DHT22;8463;48.094;7.970;2024-03-02T11:58:05;31.20;1.00
2409;DHT22;8463;48.094;7.970;2024-03-02T12:00:31;32.10;1.00
2409;DHT22;8463;48.094;7.970;2024-03-02T12:03:07;32.10;1.00
2409;DHT22;8463;48.094;7.970;2024-03-02T12:05:34;33.00;1.00
2409;DHT22;8463;48.094;7.970;2024-03-02T12:08:05;34.80;1.00
2409;DHT22;8463;48.094;7.970;2024-03-02T12:10:32;35.90;1.00
2409;DHT22;8463;48.094;7.970;2024-03-02T12:12:58;37.50;1.00
2409;DHT22;8463;48.094;7.970;2024-03-02T12:15:31;37.50;1.00
2409;DHT22;8463;48.094;7.970;2024-03-02T12:17:59;39.10;1.00
2409;DHT22;8463;48.094;7.970;2024-03-02T12:20:27;38.40;1.00
2409;DHT22;8463;48.094;7.970;2024-03-02T12:22:55;38.70;1.00
2409;DHT22;8463;48.094;7.970;2024-03-02T12:25:22;37.10;1.00
2409;DHT22;8463;48.094;7.970;2024-03-02T12:27:50;37.90;1.00
2409;DHT22;8463;48.094;7.970;2024-03-02T12:30:17;37.40;1.00
2409;DHT22;8463;48.094;7.970;2024-03-02T12:32:44;35.40;1.00
2409;DHT22;8463;48.094;7.970;2024-03-02T12:35:11;33.60;1.00
2409;DHT22;8463;48.094;7.970;2024-03-02T12:40:14;33.70;1.00
2409;DHT22;8463;48.094;7.970;2024-03-02T12:42:44;32.70;1.00
2409;DHT22;8463;48.094;7.970;2024-03-02T12:45:11;32.60;1.00
2409;DHT22;8463;48.094;7.970;2024-03-02T12:47:37;34.30;1.00
2409;DHT22;8463;48.094;7.970;2024-03-02T12:50:04;33.90;1.00
2409;DHT22;8463;48.094;7.970;2024-03-02T12:52:31;33.30;1.00
2409;DHT22;8463;48.094;7.970;2024-03-02T12:55:04;33.80;1.00
2409;DHT22;8463;48.094;7.970;2024-03-02T12:57:31;34.80;1.00
2409;DHT22;8463;48.094;7.970;2024-03-02T12:59:59;34.40;1.00
2409;DHT22;8463;48.094;7.970;2024-03-02T13:02:28;36.00;1.00
2409;DHT22;8463;48.094;7.970;2024-03-02T13:04:54;37.30;1.00
2409;DHT22;8463;48.094;7.970;2024-03-02T13:07:20;38.50;1.00
2409;DHT22;8463;48.094;7.970;2024-03-02T13:09:49;39.00;1.00
2409;DHT22;8463;48.094;7.970;2024-03-02T13:12:16;40.10;1.00
2409;DHT22;8463;48.094;7.970;2024-03-02T13:14:42;39.70;1.00
2409;DHT22;8463;48.094;7.970;2024-03-02T13:17:11;38.90;1.00
2409;DHT22;8463;48.094;7.970;2024-03-02T13:20:04;38.40;1.00
2409;DHT22;8463;48.094;7.970;2024-03-02T13:22:36;37.80;1.00
2409;DHT22;8463;48.094;7.970;2024-03-02T13:25:01;36.20;1.00
2409;DHT22;8463;48.094;7.970;2024-03-02T13:27:30;35.00;1.00
2409;DHT22;8463;48.094;7.970;2024-03-02T13:29:57;34.80;1.00
2409;DHT22;8463;48.094;7.970;2024-03-02T13:32:22;34.20;1.00
2409;DHT22;8463;48.094;7.970;2024-03-02T13:34:50;33.40;1.00
2409;DHT22;8463;48.094;7.970;2024-03-02T13:37:15;32.00;1.00
2409;DHT22;8463;48.094;7.970;2024-03-02T13:39:41;32.70;1.00
2409;DHT22;8463;48.094;7.970;2024-03-02T13:42:11;34.60;1.00
2409;DHT22;8463;48.094;7.970;2024-03-02T13:44:39;36.50;1.00
2409;DHT22;8463;48.094;7.970;2024-03-02T13:47:05;37.70;1.00
2409;DHT22;8463;48.094;7.970;2024-03-02T13:49:31;37.70;1.00
2409;DHT22;8463;48.094;7.970;2024-03-02T13:52:05;35.00;1.00
2409;DHT22;8463;48.094;7.970;2024-03-02T13:54:45;31.40;1.00
2409;DHT22;8463;48.094;7.970;2024-03-02T13:57:11;29.00;1.00
2409;DHT22;8463;48.094;7.970;2024-03-02T13:59:38;27.50;1.00
2409;DHT22;8463;48.094;7.970;2024-03-02T14:02:05;26.50;1.00
2409;DHT22;8463;48.094;7.970;2024-03-02T14:04:34;25.50;1.00
2409;DHT22;8463;48.094;7.970;2024-03-02T14:07:00;22.90;1.00
2409;DHT22;8463;48.094;7.970;2024-03-02T14:09:26;22.20;1.00
2409;DHT22;8463;48.094;7.970;2024-03-02T14:11:53;21.60;1.00
2409;DHT22;8463;48.094;7.970;2024-03-02T14:14:19;21.60;1.00
2409;DHT22;8463;48.094;7.970;2024-03-02T14:16:44;20.40;1.00
2409;DHT22;8463;48.094;7.970;2024-03-02T14:19:13;19.70;1.00
2409;DHT22;8463;48.094;7.970;2024-03-02T14:21:39;19.40;1.00
2409;DHT22;8463;48.094;7.970;2024-03-02T14:24:05;19.40;1.00
2409;DHT22;8463;48.094;7.970;2024-03-02T14:26:35;19.00;1.00
2409;DHT22;8463;48.094;7.970;2024-03-02T14:29:02;18.30;1.00
2409;DHT22;8463;48.094;7.970;2024-03-02T14:31:28;18.30;1.00
2409;DHT22;8463;48.094;7.970;2024-03-02T14:33:54;18.10;1.00
2409;DHT22;8463;48.094;7.970;2024-03-02T14:36:20;17.60;1.00
2409;DHT22;8463;48.094;7.970;2024-03-02T14:38:46;17.60;1.00
2409;DHT22;8463;48.094;7.970;2024-03-02T14:41:12;17.40;1.00
2409;DHT22;8463;48.094;7.970;2024-03-02T14:43:38;17.40;1.00
2409;DHT22;8463;48.094;7.970;2024-03-02T14:46:04;17.30;1.00
2409;DHT22;8463;48.094;7.970;2024-03-02T14:48:31;17.20;1.00
2409;DHT22;8463;48.094;7.970;2024-03-02T14:50:57;17.20;1.00
2409;DHT22;8463;48.094;7.970;2024-03-02T14:53:22;17.20;1.00
2409;DHT22;8463;48.094;7.970;2024-03-02T14:55:48;17.20;1.00
2409;DHT22;8463;48.094;7.970;2024-03-02T14:58:15;17.00;1.00
2409;DHT22;8463;48.094;7.970;2024-03-02T15:00:41;17.00;1.00
2409;DHT22;8463;48.094;7.970;2024-03-02T15:03:07;16.80;1.00
2409;DHT22;8463;48.094;7.970;2024-03-02T15:05:34;16.80;1.00
2409;DHT22;8463;48.094;7.970;2024-03-02T15:08:00;16.70;1.00
2409;DHT22;8463;48.094;7.970;2024-03-02T15:10:28;16.70;1.00
2409;DHT22;8463;48.094;7.970;2024-03-02T15:12:53;16.60;1.00
2409;DHT22;8463;48.094;7.970;2024-03-02T15:15:19;16.60;1.00
2409;DHT22;8463;48.094;7.970;2024-03-02T15:17:47;16.60;1.00
2409;DHT22;8463;48.094;7.970;2024-03-02T15:20:13;16.50;1.00
2409;DHT22;8463;48.094;7.970;2024-03-02T15:22:38;16.50;1.00
2409;DHT22;8463;48.094;7.970;2024-03-02T15:25:04;16.00;1.00
2409;DHT22;8463;48.094;7.970;2024-03-02T15:27:32;16.00;1.00
2409;DHT22;8463;48.094;7.970;2024-03-02T15:29:58;15.80;1.00
2409;DHT22;8463;48.094;7.970;2024-03-02T15:32:26;15.40;1.00
2409;DHT22;8463;48.094;7.970;2024-03-02T15:34:53;15.40;1.00
2409;DHT22;8463;48.094;7.970;2024-03-02T15:37:18;15.30;1.00
2409;DHT22;8463;48.094;7.970;2024-03-02T15:39:44;15.40;1.00
2409;DHT22;8463;48.094;7.970;2024-03-02T15:42:10;15.40;1.00
2409;DHT22;8463;48.094;7.970;2024-03-02T15:44:35;15.50;1.00
2409;DHT22;8463;48.094;7.970;2024-03-02T15:47:02;15.60;1.00
2409;DHT22;8463;48.094;7.970;2024-03-02T15:49:28;15.80;1.00
2409;DHT22;8463;48.094;7.970;2024-03-02T15:51:54;15.80;1.00
2409;DHT22;8463;48.094;7.970;2024-03-02T15:54:20;16.10;1.00
2409;DHT22;8463;48.094;7.970;2024-03-02T15:56:46;16.20;1.00
2409;DHT22;8463;48.094;7.970;2024-03-02T15:59:12;16.40;1.00
2409;DHT22;8463;48.094;7.970;2024-03-02T16:01:37;16.50;1.00
2409;DHT22;8463;48.094;7.970;2024-03-02T16:04:03;16.60;1.00
2409;DHT22;8463;48.094;7.970;2024-03-02T16:06:29;16.70;1.00
2409;DHT22;8463;48.094;7.970;2024-03-02T16:08:55;16.80;1.00
2409;DHT22;8463;48.094;7.970;2024-03-02T16:11:22;16.90;1.00
2409;DHT22;8463;48.094;7.970;2024-03-02T16:13:48;16.90;1.00
2409;DHT22;8463;48.094;7.970;2024-03-02T16:16:14;17.00;1.00
2409;DHT22;8463;48.094;7.970;2024-03-02T16:18:40;17.00;1.00
2409;DHT22;8463;48.094;7.970;2024-03-02T16:21:06;16.90;1.00
2409;DHT22;8463;48.094;7.970;2024-03-02T16:23:32;16.90;1.00
2409;DHT22;8463;48.094;7.970;2024-03-02T16:25:58;16.50;1.00
2409;DHT22;8463;48.094;7.970;2024-03-02T16:28:23;16.50;1.00
2409;DHT22;8463;48.094;7.970;2024-03-02T16:30:49;16.20;1.00
2409;DHT22;8463;48.094;7.970;2024-03-02T16:33:15;15.80;1.00
2409;DHT22;8463;48.094;7.970;2024-03-02T16:35:40;15.60;1.00
2409;DHT22;8463;48.094;7.970;2024-03-02T16:38:06;15.60;1.00
2409;DHT22;8463;48.094;7.970;2024-03-02T16:40:32;15.40;1.00
2409;DHT22;8463;48.094;7.970;2024-03-02T16:42:57;15.40;1.00
2409;DHT22;8463;48.094;7.970;2024-03-02T16:45:23;15.40;1.00